Time;durP1;ratioP1;P1;durP2;ratioP2;P2;SDS_P1;SDS_P2;PMS_P1;PMS_P2;Temp;Humidity;BMP_temperature;BMP_pressure;BME280_temperature;BME280_humidity;BME280_pressure;Samples;Min_cycle;Max_cycle;Signal;HPM_P1;HPM_P2
2023/10/10 00:01:44;;;;;;;2.45;2.15;;;;;;;15.98;43.18;101429.75;5009482;28;20488;-82
2023/10/10 00:04:13;;;;;;;1.67;0.80;;;;;;;15.98;43.17;101430.56;5026471;28;20907;-83
2023/10/10 00:06:42;;;;;;;1.23;0.50;;;;;;;15.98;43.19;101424.41;5009934;28;20394;-80
2023/10/10 00:09:10;;;;;;;1.40;0.55;;;;;;;16.08;42.96;101413.38;5009651;28;20856;-80
2023/10/10 00:11:41;;;;;;;1.27;0.60;;;;;;;16.15;42.67;101407.13;5027599;28;20938;-81
2023/10/10 00:14:17;;;;;;;1.20;0.50;;;;;;;16.22;42.57;101399.13;5010670;28;20899;-81
2023/10/10 00:16:43;;;;;;;1.67;0.63;;;;;;;16.41;42.25;101401.19;5027280;28;20429;-82
2023/10/10 00:19:28;;;;;;;0.80;0.40;;;;;;;16.46;42.26;101405.97;5009705;28;20528;-81
2023/10/10 00:21:54;;;;;;;2.00;0.93;;;;;;;16.35;42.82;101412.66;5009372;28;20475;-82
2023/10/10 00:24:20;;;;;;;1.80;0.80;;;;;;;16.31;43.14;101410.53;5009796;28;20398;-81
2023/10/10 00:26:49;;;;;;;1.77;1.00;;;;;;;16.25;43.61;101404.13;4984780;28;20513;-81
2023/10/10 00:29:18;;;;;;;1.15;0.50;;;;;;;16.28;43.74;101406.41;4952881;28;20413;-81
2023/10/10 00:31:47;;;;;;;1.88;0.70;;;;;;;16.38;43.67;101403.41;4984949;28;20404;-81
2023/10/10 00:34:16;;;;;;;2.90;1.80;;;;;;;16.34;43.82;101399.47;4968390;28;20585;-81
2023/10/10 00:36:41;;;;;;;1.93;0.83;;;;;;;16.34;44.06;101392.25;4985206;28;20422;-81
2023/10/10 00:44:17;;;;;;;1.30;0.60;;;;;;;16.60;44.05;101386.34;4984774;28;20424;-79
2023/10/10 00:46:51;;;;;;;2.03;0.80;;;;;;;16.73;43.89;101374.06;4969398;28;21002;-84
2023/10/10 00:49:24;;;;;;;1.63;0.70;;;;;;;16.87;43.90;101372.34;4971837;28;20933;-82
2023/10/10 00:52:06;;;;;;;2.38;0.80;;;;;;;17.01;43.75;101363.38;4973391;28;20409;-82
2023/10/10 00:54:43;;;;;;;1.30;0.60;;;;;;;17.13;43.59;101358.31;4956879;28;20516;-78
2023/10/10 00:57:16;;;;;;;3.95;0.80;;;;;;;17.21;43.83;101347.41;4975421;28;20436;-81
2023/10/10 00:59:47;;;;;;;1.63;0.70;;;;;;;17.33;44.02;101345.81;4973979;28;20493;-82
2023/10/10 01:02:16;;;;;;;1.10;0.50;;;;;;;17.45;43.98;101339.88;4989672;28;20492;-81
2023/10/10 01:04:55;;;;;;;1.67;0.75;;;;;;;17.62;43.84;101343.88;5001925;28;20399;-82
2023/10/10 01:07:22;;;;;;;1.48;0.60;;;;;;;17.66;43.99;101334.38;5012251;28;20390;-82
2023/10/10 01:12:22;;;;;;;1.35;0.50;;;;;;;17.90;43.51;101324.19;5012513;28;20387;-82
2023/10/10 01:14:55;;;;;;;2.00;0.80;;;;;;;17.96;43.48;101334.91;5012552;28;20383;-83
2023/10/10 01:17:34;;;;;;;1.83;1.05;;;;;;;18.10;43.47;101338.44;5011696;28;20397;-82
2023/10/10 01:20:33;;;;;;;1.83;1.10;;;;;;;18.19;43.25;101343.63;4967010;28;20503;-82
2023/10/10 01:23:00;;;;;;;1.30;0.67;;;;;;;18.19;43.37;101341.75;4967175;28;20586;-81
2023/10/10 01:28:03;;;;;;;0.98;0.40;;;;;;;18.34;43.32;101339.69;4951839;28;20415;-81
2023/10/10 01:30:57;;;;;;;1.90;1.00;;;;;;;18.30;43.21;101343.81;4967337;28;20431;-81
2023/10/10 01:33:36;;;;;;;1.20;0.60;;;;;;;18.27;43.42;101357.66;4968570;28;20395;-83
2023/10/10 01:36:29;;;;;;;1.70;0.73;;;;;;;18.42;43.20;101354.78;4953968;28;20411;-82
2023/10/10 01:38:59;;;;;;;2.25;0.90;;;;;;;18.45;43.19;101357.03;4941716;28;20486;-82
2023/10/10 01:41:48;;;;;;;1.83;0.83;;;;;;;18.49;43.01;101350.25;4952001;28;20425;-81
2023/10/10 01:44:22;;;;;;;1.30;0.57;;;;;;;18.56;42.68;101344.84;4966858;28;20399;-82
2023/10/10 01:46:51;;;;;;;1.42;0.75;;;;;;;18.54;42.84;101344.25;4951981;28;20921;-83
2023/10/10 01:49:20;;;;;;;1.17;0.60;;;;;;;18.40;43.16;101348.81;4968214;28;20484;-81
2023/10/10 01:51:55;;;;;;;1.90;0.77;;;;;;;18.36;43.21;101349.41;5022540;28;20394;-83
2023/10/10 01:54:22;;;;;;;1.58;0.70;;;;;;;18.31;43.41;101358.06;5027047;28;20405;-84
2023/10/10 01:56:51;;;;;;;1.63;0.82;;;;;;;18.20;43.75;101356.00;5026791;28;20414;-84
2023/10/10 01:59:19;;;;;;;1.17;0.65;;;;;;;18.13;43.82;101354.16;5026580;28;20436;-81
2023/10/10 02:01:47;;;;;;;1.67;0.73;;;;;;;18.15;43.75;101354.75;5027513;28;20414;-81
2023/10/10 02:04:14;;;;;;;1.63;0.70;;;;;;;18.20;43.73;101356.00;5028042;28;20389;-81
2023/10/10 02:06:45;;;;;;;1.42;0.60;;;;;;;18.07;44.12;101357.63;5010108;28;20477;-82
2023/10/10 02:09:26;;;;;;;1.58;0.70;;;;;;;18.01;44.45;101361.13;5010209;28;20374;-80
2023/10/10 02:11:55;;;;;;;2.07;0.93;;;;;;;18.07;44.29;101362.16;5026569;28;20738;-81
2023/10/10 02:14:26;;;;;;;1.35;0.57;;;;;;;18.03;44.61;101372.47;5010851;28;20485;-82
2023/10/10 02:16:55;;;;;;;1.58;0.70;;;;;;;18.10;44.57;101367.97;5027769;28;20391;-82
2023/10/10 02:19:39;;;;;;;0.93;0.55;;;;;;;18.11;44.69;101366.09;4991858;28;20408;-83
2023/10/10 02:22:22;;;;;;;1.52;0.80;;;;;;;18.17;44.85;101369.81;5007852;28;20408;-82
2023/10/10 02:28:03;;;;;;;1.60;0.80;;;;;;;18.17;44.89;101367.97;5008925;28;20431;-84
2023/10/10 02:30:40;;;;;;;3.90;1.70;;;;;;;18.20;44.74;101380.16;5009360;28;20395;-80
2023/10/10 02:35:55;;;;;;;1.52;0.77;;;;;;;18.49;44.24;101390.50;5011108;28;20914;-81
2023/10/10 02:38:36;;;;;;;1.70;0.80;;;;;;;18.46;44.33;101387.41;5009292;28;20449;-82
2023/10/10 02:43:56;;;;;;;1.30;0.60;;;;;;;18.55;43.98;101380.81;5008279;28;20451;-84
2023/10/10 02:46:37;;;;;;;1.38;0.70;;;;;;;18.41;44.50;101373.78;5024619;28;20392;-83
2023/10/10 02:49:13;;;;;;;0.90;0.45;;;;;;;18.32;44.91;101379.34;5008985;28;20775;-83
2023/10/10 02:51:41;;;;;;;1.80;0.70;;;;;;;18.41;44.34;101371.91;5025410;28;20852;-81
2023/10/10 02:54:33;;;;;;;1.33;0.60;;;;;;;18.44;44.64;101373.34;5008895;28;20515;-80
2023/10/10 02:59:59;;;;;;;1.35;0.90;;;;;;;18.45;45.15;101369.66;5008818;28;20467;-79
2023/10/10 03:02:44;;;;;;;1.30;0.50;;;;;;;18.44;45.15;101387.63;4992329;28;20437;-80
2023/10/10 03:05:16;;;;;;;0.95;0.57;;;;;;;18.53;44.82;101390.94;5023402;28;21200;-83
2023/10/10 03:07:52;;;;;;;1.58;0.60;;;;;;;18.57;44.76;101402.09;5008602;28;20392;-83
2023/10/10 03:10:38;;;;;;;1.40;0.60;;;;;;;18.42;45.79;101402.25;5006945;28;20463;-82
2023/10/10 03:13:05;;;;;;;0.80;0.40;;;;;;;18.37;46.13;101420.88;5025304;28;20469;-83
2023/10/10 03:15:33;;;;;;;0.98;0.47;;;;;;;18.37;46.65;101416.31;5010580;28;20388;-82
2023/10/10 03:20:50;;;;;;;1.15;0.45;;;;;;;18.36;47.16;101424.56;5008934;28;20420;-81
2023/10/10 03:28:34;;;;;;;0.82;0.40;;;;;;;18.40;47.54;101433.84;5009314;28;20398;-84
2023/10/10 05:23:29;;;;;;;1.20;0.40;;;;;;;18.28;48.88;101447.88;5009587;28;20421;-82
2023/10/10 05:23:47;;;;;;;1.13;0.47;;;;;;;19.08;48.15;101487.44;5011412;28;20736;-85
2023/10/10 05:26:15;;;;;;;0.80;0.30;;;;;;;19.17;47.99;101483.50;5013876;28;20416;-86
2023/10/10 05:28:45;;;;;;;0.93;0.40;;;;;;;19.26;47.58;101492.16;5012753;28;20499;-84
2023/10/10 05:31:12;;;;;;;0.50;0.30;;;;;;;19.28;47.58;101487.41;5010660;28;20887;-84
2023/10/10 05:33:38;;;;;;;1.10;0.50;;;;;;;19.37;47.51;101490.72;4978733;28;20862;-85
2023/10/10 05:36:06;;;;;;;1.30;1.00;;;;;;;19.37;47.56;101494.22;4978054;28;20909;-84
2023/10/10 05:38:45;;;;;;;1.00;0.50;;;;;;;19.44;47.47;101488.84;4995770;28;21023;-86
2023/10/10 05:41:11;;;;;;;0.63;0.40;;;;;;;19.45;47.49;101498.56;4995295;28;20400;-86
2023/10/10 05:43:37;;;;;;;0.77;0.40;;;;;;;19.31;48.05;101497.75;4972031;28;20775;-86
2023/10/10 05:46:08;;;;;;;0.90;0.50;;;;;;;19.32;48.09;101494.03;4972649;28;20403;-85
2023/10/10 05:48:39;;;;;;;0.50;0.30;;;;;;;19.33;48.20;101502.94;4944530;28;20407;-86
2023/10/10 05:51:09;;;;;;;1.80;0.88;;;;;;;19.50;47.76;101506.84;4959617;28;20406;-86
2023/10/10 05:53:35;;;;;;;0.70;0.30;;;;;;;19.56;47.64;101508.69;4982096;28;20478;-83
2023/10/10 05:56:23;;;;;;;0.93;0.50;;;;;;;19.55;47.73;101515.06;4997291;28;20526;-87
2023/10/10 05:58:49;;;;;;;0.63;0.33;;;;;;;19.58;47.67;101511.97;4999759;28;20438;-87
2023/10/10 06:01:16;;;;;;;0.60;0.30;;;;;;;19.65;47.57;101520.84;5015028;28;20396;-87
2023/10/10 06:03:56;;;;;;;1.00;0.47;;;;;;;19.58;47.95;101519.22;5013551;28;20771;-87
2023/10/10 06:06:24;;;;;;;0.90;0.50;;;;;;;19.41;48.56;101525.06;5013186;28;20501;-87
2023/10/10 06:09:00;;;;;;;1.08;0.50;;;;;;;19.28;49.06;101522.34;5012543;28;20395;-86
2023/10/10 06:11:29;;;;;;;0.60;0.30;;;;;;;19.47;48.49;101526.06;4997614;28;20404;-86
2023/10/10 06:13:55;;;;;;;0.32;0.20;;;;;;;19.34;48.83;101526.06;4973456;28;20395;-87
2023/10/10 06:16:26;;;;;;;0.50;0.30;;;;;;;19.46;48.62;101533.31;5038775;28;20424;-88
2023/10/10 06:18:57;;;;;;;0.75;0.32;;;;;;;19.62;48.33;101534.72;4989096;28;20421;-85
2023/10/10 06:21:49;;;;;;;1.35;0.52;;;;;;;19.49;48.74;101540.94;5036796;28;20394;-87
2023/10/10 06:24:22;;;;;;;0.68;0.30;;;;;;;19.52;48.65;101536.19;5035431;28;20832;-86
2023/10/10 06:26:49;;;;;;;0.80;0.40;;;;;;;19.59;48.36;101537.84;5033789;28;20402;-86
2023/10/10 06:29:15;;;;;;;0.98;0.50;;;;;;;19.64;48.48;101545.28;5036335;28;20390;-83
2023/10/10 06:31:44;;;;;;;0.80;0.30;;;;;;;19.44;48.97;101538.06;5032705;28;20401;-80
2023/10/10 06:34:22;;;;;;;0.52;0.25;;;;;;;19.48;48.99;101533.94;5015788;28;20417;-85
2023/10/10 06:36:54;;;;;;;1.03;0.50;;;;;;;19.61;48.53;101533.09;5016048;28;20440;-84
2023/10/10 06:39:21;;;;;;;1.02;0.43;;;;;;;19.67;48.43;101548.38;5030315;28;20413;-85
2023/10/10 06:41:57;;;;;;;0.90;0.60;;;;;;;19.61;48.84;101553.78;5033011;28;20406;-87
2023/10/10 06:44:35;;;;;;;0.75;0.30;;;;;;;19.81;48.25;101556.47;4989860;28;20422;-87
2023/10/10 06:47:08;;;;;;;1.70;0.90;;;;;;;19.63;48.70;101554.41;5016792;28;20462;-89
2023/10/10 06:49:47;;;;;;;0.70;0.43;;;;;;;19.78;48.29;101560.38;5016970;28;20398;-84
2023/10/10 06:52:23;;;;;;;0.75;0.47;;;;;;;19.91;48.27;101556.81;5016008;28;20414;-84
2023/10/10 06:54:56;;;;;;;0.57;0.20;;;;;;;19.85;48.39;101560.38;5014311;28;20401;-81
2023/10/10 06:57:57;;;;;;;0.30;0.20;;;;;;;19.93;48.28;101554.75;5029090;28;20399;-80
2023/10/10 07:03:04;;;;;;;0.93;0.70;;;;;;;19.71;48.71;101547.97;5017626;28;20414;-81
2023/10/10 07:05:33;;;;;;;0.95;0.38;;;;;;;19.79;48.63;101555.81;5013686;28;20390;-79
2023/10/10 07:08:00;;;;;;;1.00;0.40;;;;;;;19.75;48.79;101557.28;5006075;28;20395;-79
2023/10/10 07:10:33;;;;;;;1.53;0.83;;;;;;;19.88;48.51;101549.19;5029680;28;20455;-81
2023/10/10 07:13:14;;;;;;;1.17;0.50;;;;;;;20.03;48.22;101562.38;5031022;28;20476;-80
2023/10/10 07:15:51;;;;;;;0.80;0.40;;;;;;;20.18;47.93;101562.13;5029892;28;20446;-81
2023/10/10 07:18:23;;;;;;;1.17;0.60;;;;;;;20.30;47.60;101568.50;5030163;28;20405;-80
2023/10/10 07:21:17;;;;;;;0.60;0.30;;;;;;;20.45;47.39;101570.91;5030984;28;20429;-80
2023/10/10 07:26:58;;;;;;;0.95;0.70;;;;;;;20.29;47.66;101579.47;4971880;28;20416;-83
2023/10/10 07:29:26;;;;;;;0.65;0.35;;;;;;;20.42;47.50;101582.94;4953822;28;21425;-81
2023/10/10 07:32:20;;;;;;;0.65;0.30;;;;;;;20.55;46.99;101573.16;4972762;28;20398;-88
2023/10/10 07:34:52;;;;;;;0.68;0.35;;;;;;;20.59;47.01;101582.44;5002375;28;20401;-82
2023/10/10 07:37:38;;;;;;;1.05;0.40;;;;;;;20.47;47.01;101557.22;5034358;28;20382;-85
2023/10/10 07:40:22;;;;;;;0.70;0.30;;;;;;;20.55;46.97;101568.59;5032178;28;20398;-84
2023/10/10 07:42:50;;;;;;;1.40;0.82;;;;;;;20.62;46.41;101552.44;5029235;28;20426;-83
2023/10/10 07:45:28;;;;;;;0.50;0.28;;;;;;;20.66;46.68;101553.63;5029896;28;20469;-81
2023/10/10 07:50:37;;;;;;;0.90;0.43;;;;;;;20.73;46.41;101553.59;5030851;28;20374;-81
2023/10/10 07:53:06;;;;;;;0.93;0.50;;;;;;;20.55;46.78;101565.88;5030799;28;20444;-79
2023/10/10 07:56:05;;;;;;;1.25;0.50;;;;;;;20.81;46.59;101553.31;5012325;28;20390;-83
2023/10/10 07:58:42;;;;;;;0.82;0.40;;;;;;;20.83;46.29;101551.22;5028745;28;20406;-79
2023/10/10 08:01:16;;;;;;;0.93;0.40;;;;;;;20.84;46.35;101566.38;5018384;28;20490;-78
2023/10/10 08:03:46;;;;;;;0.57;0.32;;;;;;;20.98;45.93;101569.81;5016537;28;20456;-82
2023/10/10 08:06:23;;;;;;;0.80;0.30;;;;;;;20.96;45.94;101569.22;5033414;28;20426;-82
2023/10/10 08:09:18;;;;;;;0.90;0.50;;;;;;;21.07;45.70;101573.88;5017017;28;20409;-82
2023/10/10 08:11:45;;;;;;;1.33;0.55;;;;;;;20.91;45.93;101577.13;5032237;28;20398;-81
2023/10/10 08:14:18;;;;;;;0.75;0.35;;;;;;;21.04;45.72;101579.72;5017143;28;20413;-82
2023/10/10 08:16:47;;;;;;;0.55;0.30;;;;;;;21.34;45.25;101574.50;5034007;28;21037;-80
2023/10/10 08:19:18;;;;;;;0.65;0.35;;;;;;;21.31;45.27;101577.63;5032742;28;20382;-83
2023/10/10 08:21:53;;;;;;;1.95;0.70;;;;;;;21.55;45.01;101581.41;5015991;28;20470;-79
2023/10/10 08:24:27;;;;;;;0.95;0.35;;;;;;;21.84;44.66;101581.75;5031692;28;20390;-82
2023/10/10 08:26:56;;;;;;;0.65;0.30;;;;;;;21.76;44.51;101587.41;4990810;28;20386;-80
2023/10/10 08:29:26;;;;;;;0.98;0.40;;;;;;;21.54;44.68;101581.63;4991996;28;20397;-81
2023/10/10 08:31:52;;;;;;;1.60;0.57;;;;;;;21.77;44.57;101579.09;4975858;28;20389;-81
2023/10/10 08:34:18;;;;;;;1.40;0.50;;;;;;;21.76;44.35;101580.13;4975981;28;20392;-82
2023/10/10 08:36:43;;;;;;;0.60;0.22;;;;;;;21.58;44.44;101580.13;4992752;28;20479;-81
2023/10/10 08:41:46;;;;;;;1.30;0.50;;;;;;;21.81;44.37;101590.28;4993751;28;20931;-81
2023/10/10 08:44:17;;;;;;;0.88;0.32;;;;;;;21.54;44.61;101590.53;4993257;28;20428;-82
2023/10/10 08:46:48;;;;;;;1.30;0.50;;;;;;;21.47;44.97;101597.03;4977333;28;20433;-81
2023/10/10 08:49:16;;;;;;;0.77;0.35;;;;;;;21.51;44.94;101598.25;4992579;28;20398;-81
2023/10/10 08:51:44;;;;;;;0.80;0.43;;;;;;;21.41;45.16;101605.97;4976555;28;20437;-81
2023/10/10 08:54:12;;;;;;;0.98;0.40;;;;;;;21.43;45.15;101596.63;4993323;28;20822;-82
2023/10/10 08:56:59;;;;;;;0.40;0.30;;;;;;;21.36;45.29;101602.06;4992540;28;20385;-82
2023/10/10 08:59:28;;;;;;;1.05;0.40;;;;;;;21.48;45.06;101609.47;4976058;28;20913;-82
2023/10/10 09:02:06;;;;;;;0.65;0.30;;;;;;;21.54;44.97;101612.13;4992034;28;20417;-79
2023/10/10 09:04:37;;;;;;;1.05;0.40;;;;;;;21.46;45.07;101616.97;5026717;28;20400;-79
2023/10/10 09:07:08;;;;;;;1.15;0.45;;;;;;;21.61;44.90;101619.31;5050981;28;20428;-83
2023/10/10 09:09:39;;;;;;;1.50;0.60;;;;;;;21.61;45.02;101605.81;5019494;28;20828;-83
2023/10/10 09:12:16;;;;;;;2.20;1.25;;;;;;;21.83;44.55;101609.78;5017738;28;20381;-79
2023/10/10 09:14:51;;;;;;;1.13;0.40;;;;;;;21.86;44.57;101605.78;5051309;28;20399;-81
2023/10/10 09:17:45;;;;;;;1.23;0.60;;;;;;;21.61;44.73;101598.56;5051265;28;20849;-79
2023/10/10 09:20:28;;;;;;;0.98;0.40;;;;;;;21.57;44.80;101608.13;5030055;28;20548;-81
2023/10/10 09:22:58;;;;;;;1.27;0.60;;;;;;;21.48;44.88;101612.16;5032958;28;20410;-80
2023/10/10 09:25:31;;;;;;;0.40;0.30;;;;;;;21.60;44.59;101599.59;5030724;28;20386;-80
2023/10/10 09:28:08;;;;;;;1.70;0.60;;;;;;;21.90;44.15;101593.50;5031355;28;20504;-80
2023/10/10 09:30:45;;;;;;;0.75;0.30;;;;;;;22.08;43.92;101598.09;5030839;28;20414;-79
2023/10/10 09:33:33;;;;;;;1.50;0.73;;;;;;;21.95;43.72;101596.38;5031419;28;20606;-80
2023/10/10 09:36:12;;;;;;;0.73;0.30;;;;;;;22.06;43.81;101594.81;5031170;28;20397;-79
2023/10/10 09:38:46;;;;;;;1.17;0.50;;;;;;;22.15;43.37;101574.53;5029525;28;20939;-80
2023/10/10 09:44:49;;;;;;;0.98;0.50;;;;;;;22.03;43.39;101584.44;5030047;28;20450;-83
2023/10/10 09:47:13;;;;;;;0.60;0.38;;;;;;;21.96;43.50;101574.53;5030718;28;20422;-83
2023/10/10 09:50:28;;;;;;;1.33;0.70;;;;;;;22.08;43.37;101584.59;5018748;28;20426;-79
2023/10/10 09:52:49;;;;;;;1.02;0.40;;;;;;;22.36;42.96;101570.53;5033534;28;20393;-81
2023/10/10 09:58:08;;;;;;;0.88;0.40;;;;;;;22.52;42.60;101569.09;5032663;28;20429;-82
2023/10/10 10:09:19;;;;;;;1.45;0.50;;;;;;;22.54;42.27;101558.88;5032199;28;20464;-80
2023/10/10 10:11:51;;;;;;;2.00;1.00;;;;;;;22.48;42.51;101562.50;5013382;28;20401;-81
2023/10/10 10:14:47;;;;;;;1.17;0.40;;;;;;;22.23;42.77;101566.09;5031451;28;20418;-81
2023/10/10 10:17:26;;;;;;;0.73;0.32;;;;;;;22.25;42.87;101557.78;5015476;28;20793;-79
2023/10/10 10:20:19;;;;;;;1.67;1.20;;;;;;;22.22;42.71;101559.09;5030611;28;20729;-79
2023/10/10 10:22:59;;;;;;;0.80;0.40;;;;;;;22.37;42.75;101557.88;5029319;28;20421;-82
2023/10/10 10:25:31;;;;;;;2.83;0.90;;;;;;;22.22;42.87;101542.03;5014972;28;20397;-81
2023/10/10 10:28:03;;;;;;;1.15;0.50;;;;;;;22.49;42.60;101545.22;5029948;28;20468;-79
2023/10/10 10:30:46;;;;;;;1.55;0.60;;;;;;;22.51;42.81;101552.06;5030303;28;20398;-81
2023/10/10 10:33:23;;;;;;;1.40;0.50;;;;;;;22.53;42.36;101547.25;5016003;28;21318;-80
2023/10/10 10:35:57;;;;;;;0.47;0.28;;;;;;;22.63;42.21;101545.88;5009948;28;20396;-80
2023/10/10 10:38:24;;;;;;;2.55;1.40;;;;;;;22.67;41.92;101557.88;4992691;28;20388;-82
2023/10/10 10:41:17;;;;;;;4.00;1.90;;;;;;;22.50;42.17;101541.47;5011212;28;20438;-80
2023/10/10 10:43:51;;;;;;;1.27;0.47;;;;;;;22.61;42.24;101532.59;5009899;28;20936;-80
2023/10/10 10:46:27;;;;;;;1.42;0.52;;;;;;;22.30;42.68;101541.75;4992708;28;20412;-79
2023/10/10 10:49:05;;;;;;;0.88;0.40;;;;;;;22.32;42.76;101547.75;4978518;28;20392;-80
2023/10/10 10:51:41;;;;;;;1.02;0.50;;;;;;;22.38;42.74;101563.03;4994232;28;20438;-80
2023/10/10 10:54:35;;;;;;;0.98;0.50;;;;;;;22.29;43.04;101554.44;5009534;28;20428;-80
2023/10/10 10:57:01;;;;;;;1.13;0.50;;;;;;;22.29;43.07;101529.28;5011584;28;20392;-85
2023/10/10 10:59:44;;;;;;;1.77;0.60;;;;;;;22.23;43.44;101547.22;4979725;28;20475;-83
2023/10/10 11:02:15;;;;;;;1.40;0.50;;;;;;;22.49;42.76;101534.41;5009763;28;20418;-79
2023/10/10 11:04:50;;;;;;;1.25;0.60;;;;;;;22.68;42.24;101530.59;4992996;28;20423;-81
2023/10/10 11:07:28;;;;;;;0.38;0.20;;;;;;;22.82;42.19;101542.06;5023457;28;20418;-79
2023/10/10 11:10:10;;;;;;;1.33;0.40;;;;;;;22.56;42.67;101521.63;5029969;28;20903;-80
2023/10/10 11:12:40;;;;;;;1.40;0.60;;;;;;;22.43;42.99;101530.75;5029847;28;20383;-80
2023/10/10 11:15:37;;;;;;;1.83;0.60;;;;;;;22.55;42.61;101538.09;5013692;28;20382;-83
2023/10/10 11:18:07;;;;;;;1.20;0.50;;;;;;;22.39;43.02;101518.78;5029795;28;20813;-82
2023/10/10 11:21:06;;;;;;;0.88;0.40;;;;;;;22.44;43.01;101534.31;5013096;28;20389;-79
2023/10/10 11:23:32;;;;;;;2.17;0.68;;;;;;;22.66;42.70;101521.09;5028175;28;20422;-80
2023/10/10 11:26:19;;;;;;;1.10;0.40;;;;;;;22.62;42.82;101514.50;5014474;28;20509;-81
2023/10/10 11:28:47;;;;;;;0.73;0.40;;;;;;;22.71;42.78;101518.53;5011736;28;20400;-80
2023/10/10 11:31:14;;;;;;;0.90;0.40;;;;;;;22.82;42.48;101519.63;4979111;28;20387;-80
2023/10/10 11:33:56;;;;;;;2.00;0.65;;;;;;;22.63;42.93;101529.66;5012069;28;20391;-80
2023/10/10 11:36:29;;;;;;;0.82;0.30;;;;;;;22.70;42.60;101524.97;5012148;28;20904;-80
2023/10/10 11:38:59;;;;;;;1.15;0.40;;;;;;;22.68;42.61;101530.59;5011740;28;20441;-81
2023/10/10 11:41:37;;;;;;;0.70;0.30;;;;;;;22.94;42.41;101527.72;5013509;28;20395;-81
2023/10/10 11:44:07;;;;;;;0.57;0.30;;;;;;;22.68;42.69;101532.50;5028035;28;20426;-80
2023/10/10 11:46:33;;;;;;;0.98;0.40;;;;;;;22.72;42.54;101533.66;4996767;28;20394;-83
2023/10/10 11:49:15;;;;;;;1.60;0.98;;;;;;;22.85;42.72;101521.81;5012188;28;20489;-83
2023/10/10 11:51:43;;;;;;;1.17;0.50;;;;;;;22.78;42.65;101521.94;5028514;28;20477;-81
2023/10/10 11:54:09;;;;;;;0.68;0.30;;;;;;;22.94;42.66;101530.44;5028886;28;20984;-79
2023/10/10 11:56:35;;;;;;;0.83;0.33;;;;;;;22.95;42.10;101524.78;5030530;28;20382;-80
2023/10/10 11:59:09;;;;;;;1.35;0.40;;;;;;;22.97;42.07;101529.97;5028858;28;20387;-80
2023/10/10 12:02:07;;;;;;;1.38;0.50;;;;;;;22.91;42.27;101524.44;5030732;28;20379;-81
2023/10/10 12:04:37;;;;;;;1.42;0.90;;;;;;;22.93;42.23;101521.50;5030165;28;20413;-80
2023/10/10 12:07:05;;;;;;;1.55;0.52;;;;;;;22.80;42.37;101522.53;5028717;28;20488;-80
2023/10/10 12:09:31;;;;;;;1.40;0.70;;;;;;;22.76;42.13;101523.22;5028967;28;20818;-83
2023/10/10 12:12:01;;;;;;;0.80;0.43;;;;;;;;;;5010771;28;20399;-80
2023/10/10 12:14:30;;;;;;;1.35;0.47;;;;;;;22.71;41.74;101519.34;5026482;28;20890;-81
2023/10/10 12:17:00;;;;;;;1.60;0.63;;;;;;;22.97;41.66;101519.97;5027158;28;20790;-81
2023/10/10 12:19:29;;;;;;;0.90;0.40;;;;;;;22.84;41.82;101526.41;5010448;28;20394;-82
2023/10/10 12:21:55;;;;;;;0.85;0.35;;;;;;;22.69;42.23;101512.53;5027942;28;20406;-80
2023/10/10 12:24:22;;;;;;;1.02;0.40;;;;;;;22.86;42.18;101520.78;5011086;28;20445;-80
2023/10/10 12:26:54;;;;;;;1.27;0.50;;;;;;;22.83;41.69;101523.94;4994745;28;20773;-80
2023/10/10 12:29:22;;;;;;;0.98;0.38;;;;;;;22.88;41.57;101519.47;5011219;28;20800;-81
2023/10/10 12:31:55;;;;;;;0.55;0.28;;;;;;;22.73;41.99;101510.19;5011081;28;20408;-79
2023/10/10 12:34:24;;;;;;;3.00;1.20;;;;;;;22.66;42.02;101523.81;5012297;28;20486;-80
2023/10/10 12:36:59;;;;;;;0.93;0.40;;;;;;;22.56;42.32;101524.34;5027480;28;20425;-81
2023/10/10 12:39:29;;;;;;;1.10;0.40;;;;;;;22.46;42.28;101516.81;4995638;28;20412;-80
2023/10/10 12:41:56;;;;;;;0.43;0.22;;;;;;;22.66;42.13;101518.41;5027933;28;20418;-81
2023/10/10 12:44:23;;;;;;;0.57;0.30;;;;;;;22.74;41.67;101512.63;5030554;28;20426;-80
2023/10/10 12:46:54;;;;;;;0.70;0.30;;;;;;;22.69;41.61;101520.66;5014619;28;20398;-80
2023/10/10 12:49:28;;;;;;;1.40;0.50;;;;;;;22.55;42.24;101520.00;5032294;28;20386;-80
2023/10/10 12:51:58;;;;;;;0.63;0.40;;;;;;;22.27;42.60;101518.75;5032668;28;20390;-80
2023/10/10 12:54:34;;;;;;;1.50;0.52;;;;;;;22.46;42.31;101516.00;5032236;28;20907;-80
2023/10/10 12:57:06;;;;;;;1.08;0.47;;;;;;;22.37;42.58;101517.38;5032378;28;20406;-80
2023/10/10 12:59:33;;;;;;;1.02;0.50;;;;;;;22.43;42.49;101532.66;5033418;28;20394;-80
2023/10/10 13:02:00;;;;;;;1.08;0.40;;;;;;;22.26;43.10;101530.59;5030660;28;20410;-79
2023/10/10 13:04:31;;;;;;;0.75;0.47;;;;;;;22.22;42.68;101526.66;4965728;28;20776;-80
2023/10/10 13:07:05;;;;;;;1.17;0.40;;;;;;;22.40;41.78;101517.72;5030307;28;20440;-80
2023/10/10 13:09:31;;;;;;;1.02;0.45;;;;;;;22.58;41.61;101511.44;5014266;28;20421;-80
2023/10/10 13:12:02;;;;;;;0.93;0.43;;;;;;;22.57;41.79;101519.78;4997970;28;20496;-80
2023/10/10 13:14:32;;;;;;;1.27;0.70;;;;;;;22.57;42.06;101517.91;5014202;28;20824;-79
2023/10/10 13:20:04;;;;;;;1.13;0.50;;;;;;;22.45;41.70;101528.66;5014131;28;20805;-79
2023/10/10 13:22:31;;;;;;;0.93;0.30;;;;;;;22.51;41.88;101533.16;5030276;28;20564;-80
2023/10/10 13:24:59;;;;;;;1.70;1.00;;;;;;;22.41;41.82;101534.75;5013812;28;20398;-82
2023/10/10 13:27:25;;;;;;;1.25;0.60;;;;;;;22.41;41.82;101537.47;5013523;28;20401;-81
2023/10/10 13:29:50;;;;;;;1.20;0.50;;;;;;;22.32;42.00;101539.66;4997157;28;20390;-80
2023/10/10 13:32:20;;;;;;;0.70;0.30;;;;;;;22.37;42.16;101534.38;5030334;28;20773;-82
2023/10/10 13:34:46;;;;;;;0.98;0.40;;;;;;;22.33;42.22;101542.13;5030553;28;20433;-80
2023/10/10 13:37:14;;;;;;;1.13;0.40;;;;;;;22.51;41.77;101548.56;5030066;28;20893;-81
2023/10/10 13:39:48;;;;;;;1.13;0.50;;;;;;;22.48;41.67;101538.19;5022504;28;20426;-80
2023/10/10 13:42:14;;;;;;;1.00;0.32;;;;;;;22.25;42.08;101542.41;5030804;28;20829;-80
2023/10/10 13:44:41;;;;;;;1.30;0.60;;;;;;;22.18;42.08;101543.53;5014453;28;20421;-80
2023/10/10 13:47:10;;;;;;;2.15;0.73;;;;;;;22.11;42.21;101549.88;5014425;28;20398;-80
2023/10/10 13:50:13;;;;;;;1.17;0.40;;;;;;;22.20;42.28;101544.13;5031390;28;20389;-83
2023/10/10 13:52:27;;;;;;;0.85;0.43;;;;;;;22.09;42.46;101543.03;5016396;28;20417;-81
2023/10/10 13:54:53;;;;;;;0.55;0.40;;;;;;;21.98;42.71;101558.09;5010404;28;20455;-82
2023/10/10 13:57:18;;;;;;;0.43;0.33;;;;;;;21.76;42.99;101547.75;4993781;28;20550;-81
2023/10/10 13:59:49;;;;;;;0.90;0.30;;;;;;;21.68;43.32;101552.63;4992339;28;20423;-81
2023/10/10 14:02:16;;;;;;;1.55;0.50;;;;;;;21.87;42.78;101545.38;5009612;28;20422;-79
2023/10/10 14:04:47;;;;;;;1.33;0.30;;;;;;;21.95;42.46;101534.28;5009143;28;20412;-80
2023/10/10 14:07:14;;;;;;;1.75;0.50;;;;;;;21.98;42.61;101546.50;5009261;28;20391;-80
2023/10/10 14:09:41;;;;;;;1.07;0.40;;;;;;;22.06;42.63;101544.31;4992737;28;20400;-79
2023/10/10 14:12:08;;;;;;;1.02;0.38;;;;;;;22.07;42.40;101540.53;5008299;28;20492;-77
2023/10/10 14:14:34;;;;;;;0.80;0.30;;;;;;;22.08;42.47;101547.59;4990845;28;20461;-79
2023/10/10 14:16:59;;;;;;;1.40;0.55;;;;;;;22.14;42.28;101551.28;5008886;28;20513;-80
2023/10/10 14:19:25;;;;;;;1.30;0.47;;;;;;;22.10;42.28;101553.59;5009081;28;20439;-79
2023/10/10 14:21:54;;;;;;;0.80;0.30;;;;;;;21.86;42.54;101549.94;4988893;28;20919;-81
2023/10/10 14:24:22;;;;;;;0.75;0.30;;;;;;;21.97;42.43;101551.06;4989856;28;20913;-81
2023/10/10 14:26:49;;;;;;;1.07;0.40;;;;;;;22.20;41.92;101553.09;5010094;28;20772;-79
2023/10/10 14:29:15;;;;;;;0.77;0.30;;;;;;;22.15;42.00;101553.75;5011812;28;20381;-81
2023/10/10 14:31:44;;;;;;;1.05;0.30;;;;;;;22.11;41.95;101543.63;5010547;28;20388;-78
2023/10/10 14:34:25;;;;;;;2.08;0.68;;;;;;;21.91;42.19;101549.25;4990464;28;20396;-80
2023/10/10 14:36:53;;;;;;;1.03;0.40;;;;;;;21.83;42.18;101544.19;5030118;28;20389;-80
2023/10/10 14:39:29;;;;;;;1.03;0.57;;;;;;;21.94;41.88;101551.50;5013728;28;20429;-79
2023/10/10 14:41:58;;;;;;;0.40;0.22;;;;;;;21.76;42.39;101546.94;5029829;28;20457;-79
2023/10/10 14:44:27;;;;;;;1.23;0.60;;;;;;;21.73;42.43;101553.63;5028677;28;20423;-79